Time;durP1;ratioP1;P1;durP2;ratioP2;P2;SDS_P1;SDS_P2;PMS_P1;PMS_P2;Temp;Humidity;BMP_temperature;BMP_pressure;BME280_temperature;BME280_humidity;BME280_pressure;Samples;Min_cycle;Max_cycle;Signal;HPM_P1;HPM_P2
2023/02/12 00:05:27;;;;;;;31.85;17.52;;;;;;;5.40;100.00;102398.84;21075794;28;20052;-69
2023/02/12 00:15:28;;;;;;;27.80;15.55;;;;;;;5.32;100.00;102389.03;21071364;28;20056;-69
2023/02/12 00:25:30;;;;;;;25.48;14.77;;;;;;;5.36;100.00;102396.97;21077331;28;20093;-69
2023/02/12 00:35:31;;;;;;;28.63;14.82;;;;;;;5.36;100.00;102396.97;21075366;28;20052;-69
2023/02/12 00:45:32;;;;;;;36.45;18.55;;;;;;;5.37;100.00;102400.47;21075220;28;20416;-69
2023/02/12 00:55:34;;;;;;;39.10;19.10;;;;;;;5.34;100.00;102408.16;21074728;28;20105;-69
2023/02/12 01:05:35;;;;;;;35.50;18.45;;;;;;;5.42;100.00;102413.66;21072182;28;20052;-69
2023/02/12 01:15:37;;;;;;;32.10;17.77;;;;;;;5.31;100.00;102418.41;21073434;28;20062;-69
2023/02/12 01:25:38;;;;;;;35.58;18.45;;;;;;;5.22;100.00;102431.03;21072164;28;20466;-69
2023/02/12 01:35:39;;;;;;;40.40;22.05;;;;;;;5.22;100.00;102425.84;21070976;28;20044;-69
2023/02/12 01:45:41;;;;;;;46.00;23.75;;;;;;;5.27;100.00;102407.03;21070678;28;20054;-69
2023/02/12 01:55:42;;;;;;;40.75;21.92;;;;;;;5.23;100.00;102401.66;21070466;28;20044;-69
2023/02/12 02:05:43;;;;;;;40.38;22.40;;;;;;;5.27;100.00;102412.22;21067376;28;20456;-69
2023/02/12 02:15:45;;;;;;;37.85;21.33;;;;;;;5.23;100.00;102402.56;21065310;28;20051;-70
2023/02/12 02:25:46;;;;;;;39.60;21.98;;;;;;;5.27;100.00;102395.72;21062906;28;20160;-69
2023/02/12 02:35:47;;;;;;;36.67;20.55;;;;;;;5.21;100.00;102392.91;21062925;28;20058;-69
2023/02/12 02:45:48;;;;;;;37.60;20.65;;;;;;;5.15;100.00;102393.56;21064988;28;20063;-69
2023/02/12 02:55:50;;;;;;;33.78;18.45;;;;;;;5.12;100.00;102377.88;21061632;28;20413;-69
2023/02/12 03:05:51;;;;;;;39.95;19.50;;;;;;;5.15;100.00;102378.88;21064540;28;20488;-69
2023/02/12 03:15:53;;;;;;;37.17;20.58;;;;;;;5.15;100.00;102373.69;21060828;28;20048;-70
2023/02/12 03:25:55;;;;;;;35.30;19.85;;;;;;;5.14;100.00;102378.81;21063721;28;20059;-70
2023/02/12 03:35:59;;;;;;;41.30;22.48;;;;;;;5.25;100.00;102385.31;21065594;28;20055;-69
2023/02/12 03:46:00;;;;;;;43.78;22.90;;;;;;;5.16;100.00;102384.94;21061661;28;20719;-69
2023/02/12 03:56:02;;;;;;;44.42;24.88;;;;;;;5.20;100.00;102392.03;21077084;28;20117;-69
2023/02/12 04:06:03;;;;;;;54.65;26.08;;;;;;;5.15;100.00;102390.97;21077313;28;20082;-69
2023/02/12 04:16:05;;;;;;;43.03;24.02;;;;;;;5.19;100.00;102400.66;21083659;28;20592;-70
2023/02/12 04:26:07;;;;;;;47.20;24.80;;;;;;;5.24;100.00;102398.25;21076991;28;20056;-69
2023/02/12 04:36:08;;;;;;;47.90;24.85;;;;;;;5.20;100.00;102402.41;21075913;28;20237;-69
2023/02/12 04:46:09;;;;;;;52.47;27.88;;;;;;;5.24;100.00;102412.09;21075417;28;20082;-69
2023/02/12 04:56:11;;;;;;;46.85;24.10;;;;;;;5.20;100.00;102415.41;21074877;28;20055;-69
2023/02/12 05:06:13;;;;;;;45.63;25.40;;;;;;;5.17;100.00;102414.41;21071298;28;20415;-69
2023/02/12 05:16:14;;;;;;;53.75;26.58;;;;;;;5.23;100.00;102412.94;21068129;28;20583;-69
2023/02/12 05:26:15;;;;;;;45.05;24.73;;;;;;;5.15;100.00;102401.38;21072518;28;20091;-69
2023/02/12 05:36:17;;;;;;;49.53;24.10;;;;;;;5.10;100.00;102405.50;21058151;28;20094;-69
2023/02/12 05:46:18;;;;;;;43.40;24.15;;;;;;;5.07;100.00;102402.75;21070979;28;20480;-70
2023/02/12 05:56:19;;;;;;;44.80;24.50;;;;;;;5.07;100.00;102401.06;21070106;28;20078;-69
2023/02/12 06:06:21;;;;;;;44.58;24.23;;;;;;;5.02;100.00;102412.09;21068085;28;20048;-69
2023/02/12 06:16:22;;;;;;;59.17;26.92;;;;;;;5.04;100.00;102407.88;21068431;28;20048;-69
2023/02/12 06:26:24;;;;;;;47.22;24.60;;;;;;;4.95;100.00;102410.09;21068378;28;20064;-69
2023/02/12 06:36:25;;;;;;;47.67;26.13;;;;;;;4.97;100.00;102405.84;21066827;28;20052;-69
2023/02/12 06:46:26;;;;;;;48.08;25.80;;;;;;;4.89;100.00;102422.00;21066465;28;20056;-69
2023/02/12 06:56:28;;;;;;;46.20;25.02;;;;;;;4.95;100.00;102428.25;21062473;28;20052;-69
2023/02/12 07:06:29;;;;;;;49.10;26.17;;;;;;;5.01;100.00;102436.28;21058662;28;20055;-69
2023/02/12 07:16:30;;;;;;;49.75;26.88;;;;;;;4.91;100.00;102439.34;21061031;28;20591;-69
2023/02/12 07:26:32;;;;;;;57.40;28.45;;;;;;;5.06;100.00;102432.16;21064661;28;20051;-69
2023/02/12 07:36:33;;;;;;;56.33;29.52;;;;;;;5.13;100.00;102452.38;21076324;28;20492;-69
2023/02/12 07:46:34;;;;;;;54.22;29.48;;;;;;;5.14;100.00;102444.63;21074257;28;20080;-69
2023/02/12 07:56:36;;;;;;;56.53;29.80;;;;;;;5.39;100.00;102440.38;21073894;28;20095;-69
2023/02/12 08:06:37;;;;;;;60.72;30.75;;;;;;;5.45;100.00;102447.50;21072721;28;20397;-69
2023/02/12 08:16:39;;;;;;;59.15;31.02;;;;;;;5.69;100.00;102439.75;21077750;28;20062;-69
2023/02/12 08:26:40;;;;;;;55.42;29.50;;;;;;;5.52;100.00;102447.81;21076700;28;20181;-69
2023/02/12 08:36:43;;;;;;;56.10;31.50;;;;;;;5.82;100.00;102450.66;21074537;28;20393;-69
2023/02/12 08:46:45;;;;;;;53.95;30.08;;;;;;;5.88;100.00;102437.00;21075170;28;20150;-69
2023/02/12 08:56:47;;;;;;;51.92;27.73;;;;;;;5.97;100.00;102446.88;21068555;28;20056;-69
2023/02/12 09:06:48;;;;;;;52.60;28.67;;;;;;;6.31;100.00;102454.16;21068274;28;20484;-69
2023/02/12 09:16:51;;;;;;;54.28;28.52;;;;;;;6.54;100.00;102471.44;21065385;28;20085;-69
2023/02/12 09:26:53;;;;;;;53.60;29.45;;;;;;;6.47;100.00;102472.06;21064962;28;20113;-69
2023/02/12 09:36:54;;;;;;;55.28;30.50;;;;;;;6.76;100.00;102470.44;21065874;28;20055;-69
2023/02/12 09:46:55;;;;;;;52.33;30.20;;;;;;;6.71;100.00;102478.91;21066249;28;20059;-69
2023/02/12 09:56:57;;;;;;;55.83;30.23;;;;;;;6.99;100.00;102476.38;21031334;28;1033327;-69
2023/02/12 10:06:58;;;;;;;57.83;30.77;;;;;;;6.92;100.00;102477.91;21067528;28;20051;-69
2023/02/12 10:17:00;;;;;;;55.85;29.77;;;;;;;7.07;100.00;102463.63;21068617;28;20095;-69
2023/02/12 10:27:01;;;;;;;56.88;32.78;;;;;;;7.35;100.00;102463.63;21067046;28;20491;-69
2023/02/12 10:37:03;;;;;;;49.33;28.13;;;;;;;7.76;100.00;102456.19;21065818;28;20056;-69
2023/02/12 10:47:05;;;;;;;45.53;26.35;;;;;;;7.93;100.00;102451.41;21065632;28;20497;-69
2023/02/12 10:57:06;;;;;;;43.67;25.27;;;;;;;8.05;100.00;102441.34;21033119;22;20107;-74
2023/02/12 11:07:08;;;;;;;47.72;27.48;;;;;;;8.23;100.00;102433.09;21021369;28;20052;-74
2023/02/12 11:17:10;;;;;;;45.38;27.52;;;;;;;8.15;100.00;102424.22;21016309;28;20048;-73
2023/02/12 11:27:11;;;;;;;48.50;28.05;;;;;;;8.15;100.00;102416.38;21021102;28;20373;-73
2023/02/12 11:37:12;;;;;;;48.67;27.65;;;;;;;8.46;100.00;102418.06;21020252;28;20053;-73
2023/02/12 11:47:14;;;;;;;43.38;25.80;;;;;;;8.47;100.00;102407.66;21023590;28;20066;-73
2023/02/12 11:57:15;;;;;;;43.95;25.23;;;;;;;8.59;100.00;102395.78;21019086;28;20052;-73
2023/02/12 12:07:16;;;;;;;31.95;17.58;;;;;;;8.96;100.00;102381.88;21019359;28;20067;-75
2023/02/12 12:37:58;;;;;;;19.80;11.35;;;;;;;9.16;100.00;102362.28;21033608;28;20377;-73
2023/02/12 12:48:00;;;;;;;19.08;10.60;;;;;;;9.43;100.00;102358.44;21034528;28;20439;-73
2023/02/12 12:58:01;;;;;;;20.00;10.85;;;;;;;9.34;100.00;102342.56;21030794;28;20067;-73
2023/02/12 13:08:03;;;;;;;20.48;12.10;;;;;;;9.08;100.00;102334.19;21030565;28;20048;-73
2023/02/12 13:18:04;;;;;;;19.55;10.95;;;;;;;9.05;100.00;102321.06;21033527;28;20056;-73
2023/02/12 13:28:05;;;;;;;19.85;9.52;;;;;;;9.27;100.00;102305.00;21030191;28;20063;-74
2023/02/12 13:38:08;;;;;;;17.70;10.15;;;;;;;9.37;100.00;102306.06;21033999;28;20087;-76
2023/02/12 13:48:09;;;;;;;17.15;9.98;;;;;;;9.56;100.00;102302.06;21030513;28;20063;-73
2023/02/12 13:58:10;;;;;;;18.20;10.63;;;;;;;9.42;100.00;102294.81;21027040;28;20060;-72
2023/02/12 14:08:12;;;;;;;15.07;7.60;;;;;;;9.50;100.00;102288.03;21026521;28;20047;-72
2023/02/12 14:18:13;;;;;;;15.27;8.27;;;;;;;9.54;100.00;102277.63;21040446;28;20151;-72
2023/02/12 14:28:16;;;;;;;14.65;8.25;;;;;;;9.48;100.00;102287.09;21029839;28;20058;-71
2023/02/12 14:38:18;;;;;;;13.10;7.20;;;;;;;9.54;100.00;102275.88;21029461;28;20055;-72
2023/02/12 14:48:19;;;;;;;13.25;7.25;;;;;;;9.47;100.00;102276.63;21023250;28;20060;-72
2023/02/12 14:58:21;;;;;;;14.00;8.15;;;;;;;9.40;100.00;102269.53;21023799;28;20138;-72
2023/02/12 15:08:22;;;;;;;15.45;7.78;;;;;;;9.34;100.00;102259.84;21023768;28;20523;-72
2023/02/12 15:18:23;;;;;;;14.45;7.78;;;;;;;9.33;100.00;102257.16;20896978;28;20057;-72
2023/02/12 15:28:25;;;;;;;14.25;7.38;;;;;;;9.30;100.00;102251.91;20861660;28;20049;-72
2023/02/12 15:38:26;;;;;;;12.63;7.20;;;;;;;9.31;100.00;102248.44;20931186;28;20045;-72
2023/02/12 15:48:27;;;;;;;14.60;8.32;;;;;;;9.14;100.00;102241.13;20944101;28;20071;-72
2023/02/12 15:58:29;;;;;;;20.25;8.80;;;;;;;9.15;100.00;102232.47;20953793;28;20063;-71
2023/02/12 16:08:30;;;;;;;16.88;9.35;;;;;;;9.00;100.00;102232.13;20957997;28;20063;-72
2023/02/12 16:18:31;;;;;;;18.17;10.20;;;;;;;8.87;100.00;102236.25;20951798;28;20140;-71
2023/02/12 16:28:33;;;;;;;31.48;14.80;;;;;;;8.57;100.00;102246.00;20953872;28;20057;-71
2023/02/12 16:38:34;;;;;;;21.88;11.35;;;;;;;8.35;100.00;102249.84;20964830;28;20543;-72
2023/02/12 16:48:35;;;;;;;17.27;9.23;;;;;;;8.08;100.00;102255.28;20949513;28;20049;-72
2023/02/12 16:58:37;;;;;;;16.02;8.35;;;;;;;7.89;100.00;102265.25;21036043;23;20585;-73
2023/02/12 17:08:38;;;;;;;18.65;10.80;;;;;;;7.56;100.00;102274.81;21022289;28;20059;-71
2023/02/12 17:18:39;;;;;;;19.45;11.75;;;;;;;7.16;100.00;102278.94;21027063;28;20056;-71
2023/02/12 17:28:41;;;;;;;25.35;11.82;;;;;;;7.06;100.00;102282.13;21013274;28;20134;-71
2023/02/12 17:38:42;;;;;;;22.77;12.82;;;;;;;6.98;100.00;102281.91;21014302;28;20056;-71
2023/02/12 17:48:43;;;;;;;26.48;13.77;;;;;;;6.92;100.00;102287.81;21022222;28;20415;-71
2023/02/12 17:58:45;;;;;;;28.30;15.50;;;;;;;6.64;100.00;102298.22;21021463;28;20087;-71
2023/02/12 18:08:46;;;;;;;28.02;16.65;;;;;;;6.37;100.00;102309.56;21015306;28;20495;-71
2023/02/12 18:18:47;;;;;;;27.45;14.95;;;;;;;6.27;100.00;102310.06;21025120;28;20102;-70
2023/02/12 18:28:49;;;;;;;31.60;16.30;;;;;;;6.20;100.00;102315.03;21019743;28;20143;-71
2023/02/12 18:38:50;;;;;;;41.15;22.67;;;;;;;6.02;100.00;102315.31;21015502;28;20151;-71
2023/02/12 18:48:52;;;;;;;38.03;22.25;;;;;;;5.93;100.00;102322.78;21017647;28;20055;-71
2023/02/12 18:58:53;;;;;;;56.40;30.20;;;;;;;5.76;100.00;102315.28;21014945;28;20155;-71
2023/02/12 19:08:55;;;;;;;42.10;20.67;;;;;;;5.34;100.00;102323.31;21009729;28;20060;-71
2023/02/12 19:19:01;;;;;;;29.00;15.02;;;;;;;4.99;100.00;102321.13;21017722;28;20083;-71
2023/02/12 19:29:03;;;;;;;38.08;21.55;;;;;;;4.73;100.00;102315.81;21028037;28;20117;-71
2023/02/12 19:39:04;;;;;;;40.28;22.60;;;;;;;4.59;100.00;102327.34;21026312;28;20083;-71
2023/02/12 19:49:06;;;;;;;51.17;25.05;;;;;;;4.60;100.00;102330.03;21029779;28;20070;-71
2023/02/12 19:59:07;;;;;;;61.30;28.65;;;;;;;4.57;100.00;102335.09;21028192;28;20048;-71
2023/02/12 20:09:08;;;;;;;64.72;30.80;;;;;;;4.56;100.00;102340.22;21023725;28;20060;-71
2023/02/12 20:19:10;;;;;;;70.47;31.05;;;;;;;4.54;100.00;102327.16;21028645;28;20080;-71
2023/02/12 20:29:11;;;;;;;67.65;31.17;;;;;;;4.60;100.00;102334.34;21024748;28;20079;-71
2023/02/12 20:39:12;;;;;;;72.43;31.48;;;;;;;4.48;100.00;102336.44;21022559;28;20127;-70
2023/02/12 20:49:14;;;;;;;72.65;31.40;;;;;;;4.40;100.00;102335.22;21023916;28;20052;-71
2023/02/12 20:59:15;;;;;;;80.95;34.85;;;;;;;4.27;100.00;102328.69;21023400;28;20049;-71
2023/02/12 21:09:17;;;;;;;78.45;34.25;;;;;;;4.11;100.00;102335.78;21023343;28;20074;-71
2023/02/12 21:19:19;;;;;;;75.30;33.58;;;;;;;3.96;100.00;102326.50;21025933;28;20090;-71
2023/02/12 21:29:20;;;;;;;82.68;33.65;;;;;;;3.86;100.00;102320.03;21021781;28;20060;-71
2023/02/12 21:39:25;;;;;;;135.65;48.67;;;;;;;3.85;100.00;102320.88;21021183;28;20052;-71
2023/02/12 21:49:27;;;;;;;73.45;31.48;;;;;;;3.98;100.00;102320.56;21017676;28;20518;-70
2023/02/12 21:59:29;;;;;;;53.42;26.52;;;;;;;3.99;100.00;102337.00;21019423;28;20056;-69
2023/02/12 22:09:32;;;;;;;54.77;24.00;;;;;;;4.11;100.00;102334.91;21018318;28;20147;-69
2023/02/12 22:19:34;;;;;;;44.88;22.77;;;;;;;3.97;100.00;102338.63;21022235;28;20147;-69
2023/02/12 22:29:35;;;;;;;42.50;21.30;;;;;;;4.04;100.00;102344.16;21018072;28;20051;-69
2023/02/12 22:39:36;;;;;;;42.88;21.85;;;;;;;4.17;100.00;102334.28;21015322;28;20048;-70
2023/02/12 22:49:38;;;;;;;47.92;23.30;;;;;;;3.98;100.00;102343.03;21011918;28;20067;-69
2023/02/12 22:59:39;;;;;;;42.83;21.85;;;;;;;3.75;100.00;102355.88;21012438;28;20055;-69
2023/02/12 23:09:40;;;;;;;52.17;25.25;;;;;;;3.65;100.00;102355.41;21020628;28;20049;-69
2023/02/12 23:19:42;;;;;;;52.05;24.02;;;;;;;3.52;100.00;102357.44;21018875;28;20056;-69
2023/02/12 23:29:43;;;;;;;53.17;25.00;;;;;;;3.51;100.00;102352.22;21020732;28;20091;-69
2023/02/12 23:39:45;;;;;;;58.55;25.75;;;;;;;3.34;100.00;102349.72;21019575;28;20056;-69
2023/02/12 23:49:46;;;;;;;56.80;24.70;;;;;;;3.27;100.00;102342.53;21019896;28;20455;-69
2023/02/12 23:59:47;;;;;;;57.38;26.25;;;;;;;3.15;100.00;102351.41;21019699;28;20098;-69
